sensor_id;sensor_type;location;lat;lon;timestamp;P1;durP1;ratioP1;P2;durP2;ratioP2
55575;SDS011;41437;45.478;9.116;2022-11-27T00:01:30;27.45;;;18.40;;
55575;SDS011;41437;45.478;9.116;2022-11-27T00:04:36;26.67;;;17.50;;
55575;SDS011;41437;45.478;9.116;2022-11-27T00:07:38;28.00;;;17.70;;
55575;SDS011;41437;45.478;9.116;2022-11-27T00:10:40;25.48;;;17.45;;
55575;SDS011;41437;45.478;9.116;2022-11-27T00:13:42;25.80;;;17.35;;
55575;SDS011;41437;45.478;9.116;2022-11-27T00:16:44;28.60;;;17.65;;
55575;SDS011;41437;45.478;9.116;2022-11-27T00:19:47;26.25;;;17.10;;
55575;SDS011;41437;45.478;9.116;2022-11-27T00:22:48;25.40;;;16.33;;
55575;SDS011;41437;45.478;9.116;2022-11-27T00:25:51;28.00;;;17.27;;
55575;SDS011;41437;45.478;9.116;2022-11-27T00:28:53;27.50;;;18.20;;
55575;SDS011;41437;45.478;9.116;2022-11-27T00:31:56;23.35;;;16.70;;
55575;SDS011;41437;45.478;9.116;2022-11-27T00:34:59;25.17;;;17.70;;
55575;SDS011;41437;45.478;9.116;2022-11-27T00:38:00;27.17;;;18.05;;
55575;SDS011;41437;45.478;9.116;2022-11-27T00:41:03;26.08;;;17.65;;
55575;SDS011;41437;45.478;9.116;2022-11-27T00:44:06;26.48;;;17.20;;
55575;SDS011;41437;45.478;9.116;2022-11-27T00:47:07;28.90;;;17.20;;
55575;SDS011;41437;45.478;9.116;2022-11-27T00:50:12;25.75;;;17.35;;
55575;SDS011;41437;45.478;9.116;2022-11-27T00:53:13;26.52;;;16.52;;
55575;SDS011;41437;45.478;9.116;2022-11-27T00:56:16;26.70;;;17.15;;
55575;SDS011;41437;45.478;9.116;2022-11-27T00:59:19;25.10;;;15.82;;
55575;SDS011;41437;45.478;9.116;2022-11-27T01:02:21;26.65;;;15.85;;
55575;SDS011;41437;45.478;9.116;2022-11-27T01:05:24;21.75;;;14.68;;
55575;SDS011;41437;45.478;9.116;2022-11-27T01:08:26;23.45;;;15.25;;
55575;SDS011;41437;45.478;9.116;2022-11-27T01:11:29;22.20;;;14.48;;
55575;SDS011;41437;45.478;9.116;2022-11-27T01:14:33;24.40;;;14.85;;
55575;SDS011;41437;45.478;9.116;2022-11-27T01:17:35;20.90;;;14.95;;
55575;SDS011;41437;45.478;9.116;2022-11-27T01:20:38;20.77;;;13.82;;
55575;SDS011;41437;45.478;9.116;2022-11-27T01:23:40;23.38;;;14.57;;
55575;SDS011;41437;45.478;9.116;2022-11-27T01:26:42;20.48;;;13.75;;
55575;SDS011;41437;45.478;9.116;2022-11-27T01:29:44;21.80;;;13.82;;
55575;SDS011;41437;45.478;9.116;2022-11-27T01:32:46;24.23;;;15.38;;
55575;SDS011;41437;45.478;9.116;2022-11-27T01:35:53;23.02;;;14.15;;
55575;SDS011;41437;45.478;9.116;2022-11-27T01:38:56;20.02;;;14.18;;
55575;SDS011;41437;45.478;9.116;2022-11-27T01:41:58;22.88;;;13.60;;
55575;SDS011;41437;45.478;9.116;2022-11-27T01:44:59;21.13;;;13.70;;
55575;SDS011;41437;45.478;9.116;2022-11-27T01:48:01;19.63;;;13.10;;
55575;SDS011;41437;45.478;9.116;2022-11-27T01:51:05;21.50;;;14.85;;
55575;SDS011;41437;45.478;9.116;2022-11-27T01:54:07;23.17;;;14.90;;
55575;SDS011;41437;45.478;9.116;2022-11-27T01:57:12;23.03;;;14.73;;
55575;SDS011;41437;45.478;9.116;2022-11-27T02:00:17;23.00;;;14.93;;
55575;SDS011;41437;45.478;9.116;2022-11-27T02:03:20;24.63;;;14.65;;
55575;SDS011;41437;45.478;9.116;2022-11-27T02:06:23;22.83;;;16.02;;
55575;SDS011;41437;45.478;9.116;2022-11-27T02:09:25;23.70;;;15.43;;
55575;SDS011;41437;45.478;9.116;2022-11-27T02:12:31;23.25;;;15.35;;
55575;SDS011;41437;45.478;9.116;2022-11-27T02:15:41;23.25;;;15.18;;
55575;SDS011;41437;45.478;9.116;2022-11-27T02:18:47;25.58;;;15.38;;
55575;SDS011;41437;45.478;9.116;2022-11-27T02:21:59;24.02;;;15.38;;
55575;SDS011;41437;45.478;9.116;2022-11-27T02:25:08;21.40;;;14.70;;
55575;SDS011;41437;45.478;9.116;2022-11-27T02:28:22;24.08;;;14.40;;
55575;SDS011;41437;45.478;9.116;2022-11-27T02:31:35;18.95;;;13.07;;
55575;SDS011;41437;45.478;9.116;2022-11-27T02:34:42;17.58;;;12.88;;
55575;SDS011;41437;45.478;9.116;2022-11-27T02:37:49;18.75;;;12.93;;
55575;SDS011;41437;45.478;9.116;2022-11-27T02:40:55;20.58;;;13.00;;
55575;SDS011;41437;45.478;9.116;2022-11-27T02:44:02;19.27;;;12.10;;
55575;SDS011;41437;45.478;9.116;2022-11-27T02:47:08;19.75;;;12.82;;
55575;SDS011;41437;45.478;9.116;2022-11-27T02:50:13;18.73;;;12.63;;
55575;SDS011;41437;45.478;9.116;2022-11-27T02:53:19;17.77;;;12.55;;
55575;SDS011;41437;45.478;9.116;2022-11-27T02:56:25;20.15;;;12.25;;
55575;SDS011;41437;45.478;9.116;2022-11-27T02:59:29;21.02;;;12.85;;
55575;SDS011;41437;45.478;9.116;2022-11-27T03:02:38;20.35;;;13.25;;
55575;SDS011;41437;45.478;9.116;2022-11-27T03:05:45;18.38;;;12.80;;
55575;SDS011;41437;45.478;9.116;2022-11-27T03:08:52;22.05;;;14.32;;
55575;SDS011;41437;45.478;9.116;2022-11-27T03:11:58;26.05;;;15.18;;
55575;SDS011;41437;45.478;9.116;2022-11-27T03:14:59;22.60;;;14.73;;
55575;SDS011;41437;45.478;9.116;2022-11-27T03:18:04;21.42;;;14.07;;
55575;SDS011;41437;45.478;9.116;2022-11-27T03:21:14;22.85;;;14.50;;
55575;SDS011;41437;45.478;9.116;2022-11-27T03:24:22;21.60;;;13.85;;
55575;SDS011;41437;45.478;9.116;2022-11-27T03:27:25;21.35;;;14.63;;
55575;SDS011;41437;45.478;9.116;2022-11-27T03:30:31;22.20;;;14.07;;
55575;SDS011;41437;45.478;9.116;2022-11-27T03:33:34;23.40;;;15.10;;
55575;SDS011;41437;45.478;9.116;2022-11-27T03:36:36;23.23;;;15.13;;
55575;SDS011;41437;45.478;9.116;2022-11-27T03:39:37;21.30;;;14.20;;
55575;SDS011;41437;45.478;9.116;2022-11-27T03:42:42;22.55;;;14.82;;
55575;SDS011;41437;45.478;9.116;2022-11-27T03:45:57;22.48;;;15.18;;
55575;SDS011;41437;45.478;9.116;2022-11-27T03:49:10;20.92;;;15.13;;
55575;SDS011;41437;45.478;9.116;2022-11-27T03:52:22;25.27;;;16.15;;
55575;SDS011;41437;45.478;9.116;2022-11-27T03:55:35;24.02;;;16.77;;
55575;SDS011;41437;45.478;9.116;2022-11-27T03:58:43;23.42;;;15.38;;
55575;SDS011;41437;45.478;9.116;2022-11-27T04:01:49;22.45;;;15.50;;
55575;SDS011;41437;45.478;9.116;2022-11-27T04:04:52;24.35;;;14.88;;
55575;SDS011;41437;45.478;9.116;2022-11-27T04:07:54;22.17;;;14.48;;
55575;SDS011;41437;45.478;9.116;2022-11-27T04:10:56;21.48;;;14.27;;
55575;SDS011;41437;45.478;9.116;2022-11-27T04:13:57;21.73;;;14.68;;
55575;SDS011;41437;45.478;9.116;2022-11-27T04:16:59;22.67;;;14.48;;
55575;SDS011;41437;45.478;9.116;2022-11-27T04:20:02;27.08;;;16.25;;
55575;SDS011;41437;45.478;9.116;2022-11-27T04:23:05;22.60;;;15.18;;
55575;SDS011;41437;45.478;9.116;2022-11-27T04:26:07;21.17;;;13.80;;
55575;SDS011;41437;45.478;9.116;2022-11-27T04:29:09;21.83;;;13.80;;
55575;SDS011;41437;45.478;9.116;2022-11-27T04:32:11;19.20;;;12.27;;
55575;SDS011;41437;45.478;9.116;2022-11-27T04:35:14;21.42;;;12.15;;
55575;SDS011;41437;45.478;9.116;2022-11-27T04:38:19;16.88;;;11.18;;
55575;SDS011;41437;45.478;9.116;2022-11-27T04:41:22;16.65;;;11.02;;
55575;SDS011;41437;45.478;9.116;2022-11-27T04:44:24;18.17;;;11.73;;
55575;SDS011;41437;45.478;9.116;2022-11-27T04:47:25;16.45;;;11.05;;
55575;SDS011;41437;45.478;9.116;2022-11-27T04:50:28;19.27;;;11.48;;
55575;SDS011;41437;45.478;9.116;2022-11-27T04:53:30;22.83;;;12.57;;
55575;SDS011;41437;45.478;9.116;2022-11-27T04:56:32;21.90;;;12.95;;
55575;SDS011;41437;45.478;9.116;2022-11-27T04:59:34;21.13;;;13.40;;
55575;SDS011;41437;45.478;9.116;2022-11-27T05:02:37;18.75;;;13.45;;
55575;SDS011;41437;45.478;9.116;2022-11-27T05:05:40;23.63;;;14.75;;
55575;SDS011;41437;45.478;9.116;2022-11-27T05:08:42;23.63;;;15.13;;
55575;SDS011;41437;45.478;9.116;2022-11-27T05:11:43;23.08;;;14.82;;
55575;SDS011;41437;45.478;9.116;2022-11-27T05:14:45;22.02;;;14.18;;
55575;SDS011;41437;45.478;9.116;2022-11-27T05:17:47;20.75;;;13.93;;
55575;SDS011;41437;45.478;9.116;2022-11-27T05:20:55;20.70;;;13.63;;
55575;SDS011;41437;45.478;9.116;2022-11-27T05:23:58;20.98;;;13.20;;
55575;SDS011;41437;45.478;9.116;2022-11-27T05:27:00;21.02;;;13.57;;
55575;SDS011;41437;45.478;9.116;2022-11-27T05:30:02;24.27;;;14.38;;
55575;SDS011;41437;45.478;9.116;2022-11-27T05:33:04;21.90;;;14.18;;
55575;SDS011;41437;45.478;9.116;2022-11-27T05:36:08;21.02;;;14.50;;
55575;SDS011;41437;45.478;9.116;2022-11-27T05:39:10;22.45;;;13.75;;
55575;SDS011;41437;45.478;9.116;2022-11-27T05:42:12;19.52;;;12.70;;
55575;SDS011;41437;45.478;9.116;2022-11-27T05:45:13;22.48;;;12.63;;
55575;SDS011;41437;45.478;9.116;2022-11-27T05:48:15;20.90;;;13.00;;
55575;SDS011;41437;45.478;9.116;2022-11-27T05:51:18;18.73;;;12.85;;
55575;SDS011;41437;45.478;9.116;2022-11-27T05:54:20;18.05;;;11.00;;
55575;SDS011;41437;45.478;9.116;2022-11-27T05:57:21;17.90;;;11.68;;
55575;SDS011;41437;45.478;9.116;2022-11-27T06:00:24;16.83;;;11.38;;
55575;SDS011;41437;45.478;9.116;2022-11-27T06:03:27;18.52;;;12.18;;
55575;SDS011;41437;45.478;9.116;2022-11-27T06:06:30;19.10;;;12.15;;
55575;SDS011;41437;45.478;9.116;2022-11-27T06:09:32;20.48;;;12.25;;
55575;SDS011;41437;45.478;9.116;2022-11-27T06:12:33;17.33;;;11.30;;
55575;SDS011;41437;45.478;9.116;2022-11-27T06:15:35;17.45;;;11.90;;
55575;SDS011;41437;45.478;9.116;2022-11-27T06:18:38;18.77;;;12.55;;
55575;SDS011;41437;45.478;9.116;2022-11-27T06:21:41;19.60;;;12.68;;
55575;SDS011;41437;45.478;9.116;2022-11-27T06:24:45;18.20;;;12.18;;
55575;SDS011;41437;45.478;9.116;2022-11-27T06:27:47;16.40;;;10.85;;
55575;SDS011;41437;45.478;9.116;2022-11-27T06:30:49;17.40;;;11.57;;
55575;SDS011;41437;45.478;9.116;2022-11-27T06:33:52;16.65;;;10.95;;
55575;SDS011;41437;45.478;9.116;2022-11-27T06:36:56;16.23;;;10.98;;
55575;SDS011;41437;45.478;9.116;2022-11-27T06:39:58;15.87;;;10.93;;
55575;SDS011;41437;45.478;9.116;2022-11-27T06:43:01;16.25;;;10.70;;
55575;SDS011;41437;45.478;9.116;2022-11-27T06:46:03;18.17;;;10.75;;
55575;SDS011;41437;45.478;9.116;2022-11-27T06:49:06;16.42;;;10.63;;
55575;SDS011;41437;45.478;9.116;2022-11-27T06:52:09;16.00;;;10.48;;
55575;SDS011;41437;45.478;9.116;2022-11-27T06:55:11;16.48;;;11.07;;
55575;SDS011;41437;45.478;9.116;2022-11-27T06:58:13;16.25;;;11.20;;
55575;SDS011;41437;45.478;9.116;2022-11-27T07:01:15;18.27;;;11.20;;
55575;SDS011;41437;45.478;9.116;2022-11-27T07:04:17;16.55;;;11.02;;
55575;SDS011;41437;45.478;9.116;2022-11-27T07:07:20;16.80;;;11.00;;
55575;SDS011;41437;45.478;9.116;2022-11-27T07:10:22;15.32;;;10.93;;
55575;SDS011;41437;45.478;9.116;2022-11-27T07:13:23;18.35;;;11.88;;
55575;SDS011;41437;45.478;9.116;2022-11-27T07:16:25;18.55;;;11.88;;
55575;SDS011;41437;45.478;9.116;2022-11-27T07:19:28;18.10;;;11.98;;
55575;SDS011;41437;45.478;9.116;2022-11-27T07:22:32;17.88;;;12.00;;
55575;SDS011;41437;45.478;9.116;2022-11-27T07:25:35;18.13;;;12.10;;
55575;SDS011;41437;45.478;9.116;2022-11-27T07:28:37;19.23;;;12.10;;
55575;SDS011;41437;45.478;9.116;2022-11-27T07:31:42;17.33;;;11.90;;
55575;SDS011;41437;45.478;9.116;2022-11-27T07:34:44;18.27;;;12.00;;
55575;SDS011;41437;45.478;9.116;2022-11-27T07:37:47;15.63;;;10.90;;
55575;SDS011;41437;45.478;9.116;2022-11-27T07:40:49;16.95;;;11.63;;
55575;SDS011;41437;45.478;9.116;2022-11-27T07:43:50;16.98;;;11.23;;
55575;SDS011;41437;45.478;9.116;2022-11-27T07:46:52;15.80;;;10.45;;
55575;SDS011;41437;45.478;9.116;2022-11-27T07:49:54;17.05;;;11.05;;
55575;SDS011;41437;45.478;9.116;2022-11-27T07:52:59;16.98;;;11.63;;
55575;SDS011;41437;45.478;9.116;2022-11-27T07:56:00;17.48;;;11.23;;
55575;SDS011;41437;45.478;9.116;2022-11-27T07:59:02;15.85;;;11.10;;
55575;SDS011;41437;45.478;9.116;2022-11-27T08:02:03;15.98;;;11.15;;
55575;SDS011;41437;45.478;9.116;2022-11-27T08:05:05;21.77;;;12.27;;
55575;SDS011;41437;45.478;9.116;2022-11-27T08:08:09;15.40;;;10.52;;
55575;SDS011;41437;45.478;9.116;2022-11-27T08:11:17;17.27;;;10.90;;
55575;SDS011;41437;45.478;9.116;2022-11-27T08:14:20;16.13;;;11.43;;
55575;SDS011;41437;45.478;9.116;2022-11-27T08:17:22;16.63;;;11.60;;
55575;SDS011;41437;45.478;9.116;2022-11-27T08:20:24;16.25;;;11.32;;
55575;SDS011;41437;45.478;9.116;2022-11-27T08:23:27;15.60;;;11.48;;
55575;SDS011;41437;45.478;9.116;2022-11-27T08:26:28;17.13;;;12.25;;
55575;SDS011;41437;45.478;9.116;2022-11-27T08:29:30;19.25;;;11.95;;
55575;SDS011;41437;45.478;9.116;2022-11-27T08:32:32;21.40;;;12.82;;
55575;SDS011;41437;45.478;9.116;2022-11-27T08:35:36;18.00;;;12.57;;
55575;SDS011;41437;45.478;9.116;2022-11-27T08:38:39;17.03;;;12.17;;
55575;SDS011;41437;45.478;9.116;2022-11-27T08:41:40;18.33;;;13.38;;
55575;SDS011;41437;45.478;9.116;2022-11-27T08:44:42;20.52;;;14.15;;
55575;SDS011;41437;45.478;9.116;2022-11-27T08:47:44;19.52;;;13.80;;
55575;SDS011;41437;45.478;9.116;2022-11-27T08:50:46;17.63;;;12.65;;
55575;SDS011;41437;45.478;9.116;2022-11-27T08:53:57;17.48;;;13.15;;
55575;SDS011;41437;45.478;9.116;2022-11-27T08:56:58;19.50;;;13.35;;
55575;SDS011;41437;45.478;9.116;2022-11-27T09:00:00;17.75;;;13.45;;
55575;SDS011;41437;45.478;9.116;2022-11-27T09:03:04;16.53;;;12.07;;
55575;SDS011;41437;45.478;9.116;2022-11-27T09:06:06;16.42;;;11.25;;
55575;SDS011;41437;45.478;9.116;2022-11-27T09:09:10;18.58;;;12.23;;
55575;SDS011;41437;45.478;9.116;2022-11-27T09:12:12;14.55;;;11.05;;
55575;SDS011;41437;45.478;9.116;2022-11-27T09:15:14;16.67;;;11.88;;
55575;SDS011;41437;45.478;9.116;2022-11-27T09:18:15;16.45;;;11.25;;
55575;SDS011;41437;45.478;9.116;2022-11-27T09:21:18;15.38;;;10.60;;
55575;SDS011;41437;45.478;9.116;2022-11-27T09:24:23;18.10;;;11.80;;
55575;SDS011;41437;45.478;9.116;2022-11-27T09:27:25;16.02;;;11.38;;
55575;SDS011;41437;45.478;9.116;2022-11-27T09:30:27;14.38;;;9.98;;
55575;SDS011;41437;45.478;9.116;2022-11-27T09:33:30;13.73;;;9.85;;
55575;SDS011;41437;45.478;9.116;2022-11-27T09:36:33;14.85;;;10.57;;
55575;SDS011;41437;45.478;9.116;2022-11-27T09:39:36;15.50;;;10.95;;
55575;SDS011;41437;45.478;9.116;2022-11-27T09:42:38;14.43;;;10.43;;
55575;SDS011;41437;45.478;9.116;2022-11-27T09:45:44;15.48;;;10.13;;
55575;SDS011;41437;45.478;9.116;2022-11-27T09:48:50;15.63;;;10.73;;
55575;SDS011;41437;45.478;9.116;2022-11-27T09:51:54;16.37;;;11.30;;
55575;SDS011;41437;45.478;9.116;2022-11-27T09:55:02;14.75;;;11.35;;
55575;SDS011;41437;45.478;9.116;2022-11-27T09:58:12;16.63;;;11.55;;
55575;SDS011;41437;45.478;9.116;2022-11-27T10:01:18;16.88;;;12.27;;
55575;SDS011;41437;45.478;9.116;2022-11-27T10:04:25;14.70;;;11.43;;
55575;SDS011;41437;45.478;9.116;2022-11-27T10:07:31;17.17;;;12.90;;
55575;SDS011;41437;45.478;9.116;2022-11-27T10:10:45;18.70;;;13.48;;
55575;SDS011;41437;45.478;9.116;2022-11-27T10:14:19;19.15;;;14.35;;
55575;SDS011;41437;45.478;9.116;2022-11-27T10:17:36;21.55;;;15.02;;
55575;SDS011;41437;45.478;9.116;2022-11-27T10:20:46;19.25;;;14.27;;
55575;SDS011;41437;45.478;9.116;2022-11-27T10:23:52;22.08;;;16.20;;
55575;SDS011;41437;45.478;9.116;2022-11-27T10:27:02;20.77;;;16.30;;
55575;SDS011;41437;45.478;9.116;2022-11-27T10:30:12;25.15;;;16.75;;
55575;SDS011;41437;45.478;9.116;2022-11-27T10:33:21;20.60;;;16.35;;
55575;SDS011;41437;45.478;9.116;2022-11-27T10:36:26;26.00;;;17.83;;
55575;SDS011;41437;45.478;9.116;2022-11-27T10:39:31;25.25;;;18.45;;
55575;SDS011;41437;45.478;9.116;2022-11-27T10:42:39;22.85;;;18.25;;
55575;SDS011;41437;45.478;9.116;2022-11-27T10:45:46;26.92;;;19.45;;
55575;SDS011;41437;45.478;9.116;2022-11-27T10:48:52;30.48;;;20.90;;
55575;SDS011;41437;45.478;9.116;2022-11-27T10:51:54;25.63;;;19.63;;
55575;SDS011;41437;45.478;9.116;2022-11-27T10:54:56;27.38;;;19.92;;
55575;SDS011;41437;45.478;9.116;2022-11-27T10:58:07;24.73;;;19.77;;
55575;SDS011;41437;45.478;9.116;2022-11-27T11:01:16;25.15;;;21.15;;
55575;SDS011;41437;45.478;9.116;2022-11-27T11:04:20;28.10;;;21.75;;
55575;SDS011;41437;45.478;9.116;2022-11-27T11:07:27;26.27;;;20.83;;
55575;SDS011;41437;45.478;9.116;2022-11-27T11:10:32;22.55;;;18.00;;
55575;SDS011;41437;45.478;9.116;2022-11-27T11:13:43;24.83;;;18.00;;
55575;SDS011;41437;45.478;9.116;2022-11-27T11:16:46;23.55;;;17.42;;
55575;SDS011;41437;45.478;9.116;2022-11-27T11:19:48;20.33;;;15.43;;
55575;SDS011;41437;45.478;9.116;2022-11-27T11:22:49;21.70;;;15.80;;
55575;SDS011;41437;45.478;9.116;2022-11-27T11:25:52;20.80;;;15.23;;
55575;SDS011;41437;45.478;9.116;2022-11-27T11:28:58;17.55;;;13.43;;
55575;SDS011;41437;45.478;9.116;2022-11-27T11:32:04;17.83;;;13.38;;
55575;SDS011;41437;45.478;9.116;2022-11-27T11:35:09;17.35;;;12.73;;
55575;SDS011;41437;45.478;9.116;2022-11-27T11:38:27;19.33;;;13.45;;
55575;SDS011;41437;45.478;9.116;2022-11-27T11:41:36;17.90;;;13.60;;
55575;SDS011;41437;45.478;9.116;2022-11-27T11:44:48;18.30;;;13.00;;
55575;SDS011;41437;45.478;9.116;2022-11-27T11:47:52;17.92;;;13.07;;
55575;SDS011;41437;45.478;9.116;2022-11-27T11:50:57;17.52;;;13.00;;
55575;SDS011;41437;45.478;9.116;2022-11-27T11:54:05;15.38;;;12.02;;
55575;SDS011;41437;45.478;9.116;2022-11-27T11:57:28;17.30;;;10.73;;
55575;SDS011;41437;45.478;9.116;2022-11-27T12:00:48;13.50;;;7.85;;
55575;SDS011;41437;45.478;9.116;2022-11-27T12:03:59;11.93;;;7.75;;
55575;SDS011;41437;45.478;9.116;2022-11-27T12:07:09;9.35;;;7.03;;
55575;SDS011;41437;45.478;9.116;2022-11-27T12:10:23;11.25;;;6.90;;
55575;SDS011;41437;45.478;9.116;2022-11-27T12:13:37;11.15;;;6.90;;
55575;SDS011;41437;45.478;9.116;2022-11-27T12:16:52;11.27;;;6.53;;
55575;SDS011;41437;45.478;9.116;2022-11-27T12:20:11;11.93;;;6.22;;
55575;SDS011;41437;45.478;9.116;2022-11-27T12:23:21;9.30;;;6.22;;
55575;SDS011;41437;45.478;9.116;2022-11-27T12:26:46;11.07;;;6.35;;
55575;SDS011;41437;45.478;9.116;2022-11-27T12:30:11;12.30;;;8.15;;
55575;SDS011;41437;45.478;9.116;2022-11-27T12:33:21;12.70;;;8.65;;
55575;SDS011;41437;45.478;9.116;2022-11-27T12:36:44;12.15;;;8.82;;
55575;SDS011;41437;45.478;9.116;2022-11-27T12:40:02;12.05;;;8.32;;
55575;SDS011;41437;45.478;9.116;2022-11-27T12:43:22;11.95;;;8.07;;
55575;SDS011;41437;45.478;9.116;2022-11-27T12:46:26;12.13;;;7.50;;
55575;SDS011;41437;45.478;9.116;2022-11-27T12:49:39;10.32;;;7.20;;
55575;SDS011;41437;45.478;9.116;2022-11-27T12:52:44;10.48;;;6.95;;
55575;SDS011;41437;45.478;9.116;2022-11-27T12:56:02;11.00;;;6.97;;
55575;SDS011;41437;45.478;9.116;2022-11-27T12:59:11;9.77;;;6.55;;
55575;SDS011;41437;45.478;9.116;2022-11-27T13:02:28;9.55;;;6.25;;
55575;SDS011;41437;45.478;9.116;2022-11-27T13:05:38;8.95;;;6.00;;
55575;SDS011;41437;45.478;9.116;2022-11-27T13:08:44;8.98;;;5.78;;
55575;SDS011;41437;45.478;9.116;2022-11-27T13:11:50;9.35;;;6.10;;
55575;SDS011;41437;45.478;9.116;2022-11-27T13:14:56;11.00;;;6.13;;
55575;SDS011;41437;45.478;9.116;2022-11-27T13:18:04;10.52;;;6.20;;
55575;SDS011;41437;45.478;9.116;2022-11-27T13:21:16;10.10;;;7.03;;
55575;SDS011;41437;45.478;9.116;2022-11-27T13:24:21;12.05;;;7.60;;
55575;SDS011;41437;45.478;9.116;2022-11-27T13:27:25;11.55;;;6.97;;
55575;SDS011;41437;45.478;9.116;2022-11-27T13:30:30;11.07;;;7.90;;
55575;SDS011;41437;45.478;9.116;2022-11-27T13:33:37;12.00;;;8.45;;
55575;SDS011;41437;45.478;9.116;2022-11-27T13:36:43;10.52;;;7.57;;
55575;SDS011;41437;45.478;9.116;2022-11-27T13:39:49;12.43;;;8.30;;
55575;SDS011;41437;45.478;9.116;2022-11-27T13:43:04;13.50;;;8.13;;
55575;SDS011;41437;45.478;9.116;2022-11-27T13:46:19;12.38;;;8.65;;
55575;SDS011;41437;45.478;9.116;2022-11-27T13:49:25;11.80;;;8.27;;
55575;SDS011;41437;45.478;9.116;2022-11-27T13:52:32;12.38;;;8.20;;
55575;SDS011;41437;45.478;9.116;2022-11-27T13:55:35;12.02;;;8.65;;
55575;SDS011;41437;45.478;9.116;2022-11-27T13:58:40;12.15;;;8.02;;
55575;SDS011;41437;45.478;9.116;2022-11-27T14:01:52;12.02;;;8.23;;
55575;SDS011;41437;45.478;9.116;2022-11-27T14:04:56;11.68;;;8.00;;
55575;SDS011;41437;45.478;9.116;2022-11-27T14:08:13;12.25;;;7.90;;
55575;SDS011;41437;45.478;9.116;2022-11-27T14:11:26;12.10;;;8.10;;
55575;SDS011;41437;45.478;9.116;2022-11-27T14:14:30;12.10;;;8.38;;
55575;SDS011;41437;45.478;9.116;2022-11-27T14:17:33;10.75;;;7.70;;
55575;SDS011;41437;45.478;9.116;2022-11-27T14:20:44;11.95;;;8.30;;
55575;SDS011;41437;45.478;9.116;2022-11-27T14:23:50;10.40;;;7.47;;
55575;SDS011;41437;45.478;9.116;2022-11-27T14:26:53;13.38;;;8.02;;
55575;SDS011;41437;45.478;9.116;2022-11-27T14:29:57;10.35;;;7.43;;
55575;SDS011;41437;45.478;9.116;2022-11-27T14:33:18;11.55;;;8.00;;
55575;SDS011;41437;45.478;9.116;2022-11-27T14:36:23;9.77;;;7.35;;
55575;SDS011;41437;45.478;9.116;2022-11-27T14:39:29;13.45;;;7.68;;
55575;SDS011;41437;45.478;9.116;2022-11-27T14:42:32;11.13;;;7.55;;
55575;SDS011;41437;45.478;9.116;2022-11-27T14:45:34;12.30;;;7.68;;
55575;SDS011;41437;45.478;9.116;2022-11-27T14:48:39;11.77;;;8.32;;
55575;SDS011;41437;45.478;9.116;2022-11-27T14:51:44;13.75;;;8.38;;
55575;SDS011;41437;45.478;9.116;2022-11-27T14:54:51;12.75;;;7.90;;
55575;SDS011;41437;45.478;9.116;2022-11-27T14:57:53;11.43;;;8.13;;
55575;SDS011;41437;45.478;9.116;2022-11-27T15:00:57;11.85;;;7.72;;
55575;SDS011;41437;45.478;9.116;2022-11-27T15:04:03;12.50;;;7.90;;
55575;SDS011;41437;45.478;9.116;2022-11-27T15:07:11;12.82;;;7.88;;
55575;SDS011;41437;45.478;9.116;2022-11-27T15:10:31;11.55;;;8.10;;
55575;SDS011;41437;45.478;9.116;2022-11-27T15:13:36;11.48;;;8.50;;
55575;SDS011;41437;45.478;9.116;2022-11-27T15:16:38;13.10;;;8.25;;
55575;SDS011;41437;45.478;9.116;2022-11-27T15:19:46;13.00;;;8.68;;
55575;SDS011;41437;45.478;9.116;2022-11-27T15:22:48;14.65;;;8.75;;
55575;SDS011;41437;45.478;9.116;2022-11-27T15:26:02;12.73;;;9.25;;
55575;SDS011;41437;45.478;9.116;2022-11-27T15:29:22;15.15;;;9.35;;
55575;SDS011;41437;45.478;9.116;2022-11-27T15:32:41;12.88;;;8.65;;
55575;SDS011;41437;45.478;9.116;2022-11-27T15:36:14;14.00;;;9.00;;
55575;SDS011;41437;45.478;9.116;2022-11-27T15:39:20;14.02;;;9.68;;
55575;SDS011;41437;45.478;9.116;2022-11-27T15:42:24;14.40;;;9.93;;
55575;SDS011;41437;45.478;9.116;2022-11-27T15:45:27;14.07;;;9.35;;
55575;SDS011;41437;45.478;9.116;2022-11-27T15:48:31;14.25;;;9.90;;
55575;SDS011;41437;45.478;9.116;2022-11-27T15:51:34;15.23;;;10.00;;
55575;SDS011;41437;45.478;9.116;2022-11-27T15:54:36;14.90;;;9.82;;
55575;SDS011;41437;45.478;9.116;2022-11-27T15:57:40;15.45;;;9.95;;
55575;SDS011;41437;45.478;9.116;2022-11-27T16:00:43;12.95;;;9.27;;
55575;SDS011;41437;45.478;9.116;2022-11-27T16:03:47;14.90;;;9.50;;
55575;SDS011;41437;45.478;9.116;2022-11-27T16:06:49;14.82;;;8.98;;
55575;SDS011;41437;45.478;9.116;2022-11-27T16:09:51;14.60;;;10.23;;
55575;SDS011;41437;45.478;9.116;2022-11-27T16:12:53;15.35;;;9.25;;
55575;SDS011;41437;45.478;9.116;2022-11-27T16:15:59;16.70;;;10.07;;
55575;SDS011;41437;45.478;9.116;2022-11-27T16:19:02;14.25;;;9.48;;
55575;SDS011;41437;45.478;9.116;2022-11-27T16:22:06;15.32;;;9.55;;
55575;SDS011;41437;45.478;9.116;2022-11-27T16:28:10;15.00;;;9.65;;
55575;SDS011;41437;45.478;9.116;2022-11-27T16:31:12;16.33;;;9.45;;
55575;SDS011;41437;45.478;9.116;2022-11-27T16:34:14;15.32;;;9.80;;
55575;SDS011;41437;45.478;9.116;2022-11-27T16:37:18;16.55;;;10.10;;
55575;SDS011;41437;45.478;9.116;2022-11-27T16:40:20;14.03;;;10.10;;
55575;SDS011;41437;45.478;9.116;2022-11-27T16:43:22;14.63;;;9.63;;
55575;SDS011;41437;45.478;9.116;2022-11-27T16:46:24;15.18;;;9.93;;
55575;SDS011;41437;45.478;9.116;2022-11-27T16:49:27;14.32;;;9.90;;
55575;SDS011;41437;45.478;9.116;2022-11-27T16:52:33;18.65;;;11.65;;
55575;SDS011;41437;45.478;9.116;2022-11-27T16:55:35;17.20;;;10.68;;
55575;SDS011;41437;45.478;9.116;2022-11-27T16:58:38;16.90;;;11.35;;
55575;SDS011;41437;45.478;9.116;2022-11-27T17:04:43;15.60;;;11.10;;
55575;SDS011;41437;45.478;9.116;2022-11-27T17:07:45;17.05;;;11.48;;
55575;SDS011;41437;45.478;9.116;2022-11-27T17:10:47;17.13;;;11.32;;
55575;SDS011;41437;45.478;9.116;2022-11-27T17:13:50;16.35;;;11.27;;
55575;SDS011;41437;45.478;9.116;2022-11-27T17:16:53;16.92;;;11.73;;
55575;SDS011;41437;45.478;9.116;2022-11-27T17:19:55;18.48;;;11.75;;
55575;SDS011;41437;45.478;9.116;2022-11-27T17:23:00;17.90;;;11.77;;
55575;SDS011;41437;45.478;9.116;2022-11-27T17:26:06;15.82;;;11.52;;
55575;SDS011;41437;45.478;9.116;2022-11-27T17:29:09;18.95;;;11.55;;
55575;SDS011;41437;45.478;9.116;2022-11-27T17:32:12;20.10;;;12.10;;
55575;SDS011;41437;45.478;9.116;2022-11-27T17:35:14;20.48;;;14.27;;
55575;SDS011;41437;45.478;9.116;2022-11-27T17:38:17;18.20;;;11.18;;
55575;SDS011;41437;45.478;9.116;2022-11-27T17:41:19;19.40;;;12.60;;
55575;SDS011;41437;45.478;9.116;2022-11-27T17:44:22;19.65;;;12.68;;
55575;SDS011;41437;45.478;9.116;2022-11-27T17:47:25;17.05;;;12.30;;
55575;SDS011;41437;45.478;9.116;2022-11-27T17:50:27;18.95;;;12.32;;
55575;SDS011;41437;45.478;9.116;2022-11-27T17:53:31;18.35;;;11.82;;
55575;SDS011;41437;45.478;9.116;2022-11-27T17:56:33;17.67;;;11.85;;
55575;SDS011;41437;45.478;9.116;2022-11-27T17:59:35;16.98;;;12.02;;
55575;SDS011;41437;45.478;9.116;2022-11-27T18:02:36;21.05;;;13.82;;
55575;SDS011;41437;45.478;9.116;2022-11-27T18:05:38;21.40;;;13.38;;
55575;SDS011;41437;45.478;9.116;2022-11-27T18:08:41;19.83;;;13.10;;
55575;SDS011;41437;45.478;9.116;2022-11-27T18:11:44;21.15;;;14.40;;
55575;SDS011;41437;45.478;9.116;2022-11-27T18:14:47;21.50;;;12.57;;